sensor_id;sensor_type;location;lat;lon;timestamp;P1;durP1;ratioP1;P2;durP2;ratioP2
12597;SDS011;6364;53.590;9.956;2023-06-14T00:00:37;5.85;;;3.28;;
12597;SDS011;6364;53.590;9.956;2023-06-14T00:03:05;6.75;;;3.15;;
12597;SDS011;6364;53.590;9.956;2023-06-14T00:05:35;10.75;;;3.45;;
12597;SDS011;6364;53.590;9.956;2023-06-14T00:08:05;5.63;;;3.47;;
12597;SDS011;6364;53.590;9.956;2023-06-14T00:10:33;5.05;;;3.25;;
12597;SDS011;6364;53.590;9.956;2023-06-14T00:13:01;10.20;;;3.42;;
12597;SDS011;6364;53.590;9.956;2023-06-14T00:15:27;6.18;;;3.30;;
12597;SDS011;6364;53.590;9.956;2023-06-14T00:17:53;9.57;;;3.58;;
12597;SDS011;6364;53.590;9.956;2023-06-14T00:20:19;7.00;;;3.35;;
12597;SDS011;6364;53.590;9.956;2023-06-14T00:22:45;4.50;;;3.20;;
12597;SDS011;6364;53.590;9.956;2023-06-14T00:25:11;4.07;;;3.28;;
12597;SDS011;6364;53.590;9.956;2023-06-14T00:27:36;7.32;;;3.17;;
12597;SDS011;6364;53.590;9.956;2023-06-14T00:30:01;6.35;;;3.42;;
12597;SDS011;6364;53.590;9.956;2023-06-14T00:32:27;5.07;;;3.22;;
12597;SDS011;6364;53.590;9.956;2023-06-14T00:34:52;6.25;;;3.58;;
12597;SDS011;6364;53.590;9.956;2023-06-14T00:37:18;6.65;;;3.15;;
12597;SDS011;6364;53.590;9.956;2023-06-14T00:39:43;8.90;;;3.70;;
12597;SDS011;6364;53.590;9.956;2023-06-14T00:42:08;8.13;;;3.40;;
12597;SDS011;6364;53.590;9.956;2023-06-14T00:44:34;5.63;;;3.45;;
12597;SDS011;6364;53.590;9.956;2023-06-14T00:46:59;4.95;;;3.40;;
12597;SDS011;6364;53.590;9.956;2023-06-14T00:49:24;7.60;;;3.72;;
12597;SDS011;6364;53.590;9.956;2023-06-14T00:51:50;9.57;;;4.07;;
12597;SDS011;6364;53.590;9.956;2023-06-14T00:54:16;9.00;;;3.95;;
12597;SDS011;6364;53.590;9.956;2023-06-14T00:56:41;11.32;;;4.25;;
12597;SDS011;6364;53.590;9.956;2023-06-14T00:59:07;7.78;;;4.10;;
12597;SDS011;6364;53.590;9.956;2023-06-14T01:01:32;9.48;;;3.95;;
12597;SDS011;6364;53.590;9.956;2023-06-14T01:03:58;6.15;;;3.75;;
12597;SDS011;6364;53.590;9.956;2023-06-14T01:11:38;8.73;;;4.00;;
12597;SDS011;6364;53.590;9.956;2023-06-14T01:14:08;6.70;;;4.28;;
12597;SDS011;6364;53.590;9.956;2023-06-14T01:16:36;7.55;;;3.40;;
12597;SDS011;6364;53.590;9.956;2023-06-14T01:19:04;7.97;;;3.88;;
12597;SDS011;6364;53.590;9.956;2023-06-14T01:21:30;5.85;;;3.50;;
12597;SDS011;6364;53.590;9.956;2023-06-14T01:23:58;8.57;;;3.78;;
12597;SDS011;6364;53.590;9.956;2023-06-14T01:26:24;6.57;;;3.70;;
12597;SDS011;6364;53.590;9.956;2023-06-14T01:28:51;6.63;;;3.53;;
12597;SDS011;6364;53.590;9.956;2023-06-14T01:31:18;4.97;;;3.22;;
12597;SDS011;6364;53.590;9.956;2023-06-14T01:33:46;6.78;;;3.63;;
12597;SDS011;6364;53.590;9.956;2023-06-14T01:36:13;9.18;;;3.67;;
12597;SDS011;6364;53.590;9.956;2023-06-14T01:38:39;8.68;;;3.45;;
12597;SDS011;6364;53.590;9.956;2023-06-14T01:41:05;6.15;;;3.70;;
12597;SDS011;6364;53.590;9.956;2023-06-14T01:43:31;8.48;;;3.97;;
12597;SDS011;6364;53.590;9.956;2023-06-14T01:45:56;8.63;;;3.40;;
12597;SDS011;6364;53.590;9.956;2023-06-14T01:48:22;6.13;;;3.72;;
12597;SDS011;6364;53.590;9.956;2023-06-14T01:50:48;7.28;;;3.70;;
12597;SDS011;6364;53.590;9.956;2023-06-14T01:53:14;8.43;;;3.70;;
12597;SDS011;6364;53.590;9.956;2023-06-14T01:55:40;4.80;;;3.45;;
12597;SDS011;6364;53.590;9.956;2023-06-14T01:58:08;8.30;;;3.80;;
12597;SDS011;6364;53.590;9.956;2023-06-14T02:00:33;11.68;;;3.80;;
12597;SDS011;6364;53.590;9.956;2023-06-14T02:02:58;6.95;;;3.85;;
12597;SDS011;6364;53.590;9.956;2023-06-14T02:05:24;6.80;;;3.60;;
12597;SDS011;6364;53.590;9.956;2023-06-14T02:07:50;7.03;;;4.07;;
12597;SDS011;6364;53.590;9.956;2023-06-14T02:10:15;8.25;;;4.10;;
12597;SDS011;6364;53.590;9.956;2023-06-14T02:12:42;9.00;;;4.00;;
12597;SDS011;6364;53.590;9.956;2023-06-14T02:15:08;4.97;;;3.47;;
12597;SDS011;6364;53.590;9.956;2023-06-14T02:17:34;6.53;;;3.55;;
12597;SDS011;6364;53.590;9.956;2023-06-14T02:19:59;7.57;;;3.80;;
12597;SDS011;6364;53.590;9.956;2023-06-14T02:22:25;10.93;;;3.92;;
12597;SDS011;6364;53.590;9.956;2023-06-14T02:24:50;5.50;;;3.70;;
12597;SDS011;6364;53.590;9.956;2023-06-14T02:27:16;9.20;;;3.75;;
12597;SDS011;6364;53.590;9.956;2023-06-14T02:29:42;7.28;;;3.45;;
12597;SDS011;6364;53.590;9.956;2023-06-14T02:32:07;6.65;;;3.83;;
12597;SDS011;6364;53.590;9.956;2023-06-14T02:34:33;8.88;;;4.07;;
12597;SDS011;6364;53.590;9.956;2023-06-14T02:36:59;11.82;;;3.90;;
12597;SDS011;6364;53.590;9.956;2023-06-14T02:39:25;7.60;;;4.30;;
12597;SDS011;6364;53.590;9.956;2023-06-14T02:41:50;7.20;;;3.90;;
12597;SDS011;6364;53.590;9.956;2023-06-14T02:44:17;8.43;;;3.70;;
12597;SDS011;6364;53.590;9.956;2023-06-14T02:46:43;6.18;;;3.88;;
12597;SDS011;6364;53.590;9.956;2023-06-14T02:49:09;6.72;;;4.03;;
12597;SDS011;6364;53.590;9.956;2023-06-14T02:51:34;8.18;;;5.10;;
12597;SDS011;6364;53.590;9.956;2023-06-14T02:54:00;7.10;;;4.40;;
12597;SDS011;6364;53.590;9.956;2023-06-14T02:56:25;8.57;;;4.13;;
12597;SDS011;6364;53.590;9.956;2023-06-14T02:58:51;8.43;;;4.15;;
12597;SDS011;6364;53.590;9.956;2023-06-14T03:01:16;5.90;;;3.63;;
12597;SDS011;6364;53.590;9.956;2023-06-14T03:03:42;7.53;;;4.07;;
12597;SDS011;6364;53.590;9.956;2023-06-14T03:06:07;9.60;;;4.40;;
12597;SDS011;6364;53.590;9.956;2023-06-14T03:08:33;9.25;;;4.45;;
12597;SDS011;6364;53.590;9.956;2023-06-14T03:11:03;12.43;;;4.30;;
12597;SDS011;6364;53.590;9.956;2023-06-14T03:13:30;8.80;;;4.45;;
12597;SDS011;6364;53.590;9.956;2023-06-14T03:15:57;6.10;;;4.18;;
12597;SDS011;6364;53.590;9.956;2023-06-14T03:18:22;5.70;;;4.00;;
12597;SDS011;6364;53.590;9.956;2023-06-14T03:20:48;9.15;;;4.25;;
12597;SDS011;6364;53.590;9.956;2023-06-14T03:23:13;6.95;;;4.00;;
12597;SDS011;6364;53.590;9.956;2023-06-14T03:25:38;4.80;;;3.78;;
12597;SDS011;6364;53.590;9.956;2023-06-14T03:28:07;8.07;;;4.38;;
12597;SDS011;6364;53.590;9.956;2023-06-14T03:30:32;9.43;;;4.07;;
12597;SDS011;6364;53.590;9.956;2023-06-14T03:32:57;11.48;;;4.95;;
12597;SDS011;6364;53.590;9.956;2023-06-14T03:35:25;9.27;;;4.35;;
12597;SDS011;6364;53.590;9.956;2023-06-14T03:37:51;6.97;;;4.32;;
12597;SDS011;6364;53.590;9.956;2023-06-14T03:40:17;11.45;;;4.40;;
12597;SDS011;6364;53.590;9.956;2023-06-14T03:42:43;7.10;;;4.22;;
12597;SDS011;6364;53.590;9.956;2023-06-14T03:45:08;8.32;;;4.60;;
12597;SDS011;6364;53.590;9.956;2023-06-14T03:47:34;5.93;;;4.18;;
12597;SDS011;6364;53.590;9.956;2023-06-14T03:50:00;13.68;;;4.25;;
12597;SDS011;6364;53.590;9.956;2023-06-14T03:52:27;9.30;;;4.25;;
12597;SDS011;6364;53.590;9.956;2023-06-14T03:54:52;8.82;;;4.15;;
12597;SDS011;6364;53.590;9.956;2023-06-14T03:57:18;10.23;;;3.92;;
12597;SDS011;6364;53.590;9.956;2023-06-14T03:59:44;8.80;;;4.55;;
12597;SDS011;6364;53.590;9.956;2023-06-14T04:02:09;6.38;;;4.70;;
12597;SDS011;6364;53.590;9.956;2023-06-14T04:04:35;9.80;;;5.35;;
12597;SDS011;6364;53.590;9.956;2023-06-14T04:07:00;11.35;;;4.75;;
12597;SDS011;6364;53.590;9.956;2023-06-14T04:09:28;10.20;;;5.28;;
12597;SDS011;6364;53.590;9.956;2023-06-14T04:11:56;14.32;;;4.93;;
12597;SDS011;6364;53.590;9.956;2023-06-14T04:14:21;8.82;;;4.93;;
12597;SDS011;6364;53.590;9.956;2023-06-14T04:16:47;10.20;;;5.25;;
12597;SDS011;6364;53.590;9.956;2023-06-14T04:19:13;7.47;;;4.63;;
12597;SDS011;6364;53.590;9.956;2023-06-14T04:21:39;6.13;;;4.45;;
12597;SDS011;6364;53.590;9.956;2023-06-14T04:24:04;17.73;;;4.47;;
12597;SDS011;6364;53.590;9.956;2023-06-14T04:26:30;9.10;;;4.70;;
12597;SDS011;6364;53.590;9.956;2023-06-14T04:28:58;9.35;;;4.28;;
12597;SDS011;6364;53.590;9.956;2023-06-14T04:31:30;8.25;;;4.78;;
12597;SDS011;6364;53.590;9.956;2023-06-14T04:33:58;6.60;;;4.25;;
12597;SDS011;6364;53.590;9.956;2023-06-14T04:36:24;8.70;;;4.45;;
12597;SDS011;6364;53.590;9.956;2023-06-14T04:38:52;7.50;;;4.15;;
12597;SDS011;6364;53.590;9.956;2023-06-14T04:41:20;12.43;;;4.25;;
12597;SDS011;6364;53.590;9.956;2023-06-14T04:43:47;7.15;;;4.07;;
12597;SDS011;6364;53.590;9.956;2023-06-14T04:46:13;9.10;;;4.35;;
12597;SDS011;6364;53.590;9.956;2023-06-14T04:48:39;11.82;;;4.22;;
12597;SDS011;6364;53.590;9.956;2023-06-14T04:51:06;12.25;;;5.00;;
12597;SDS011;6364;53.590;9.956;2023-06-14T04:53:32;6.65;;;4.22;;
12597;SDS011;6364;53.590;9.956;2023-06-14T04:55:57;7.25;;;4.57;;
12597;SDS011;6364;53.590;9.956;2023-06-14T04:58:23;8.15;;;4.70;;
12597;SDS011;6364;53.590;9.956;2023-06-14T05:00:48;11.13;;;4.93;;
12597;SDS011;6364;53.590;9.956;2023-06-14T05:03:14;10.52;;;4.28;;
12597;SDS011;6364;53.590;9.956;2023-06-14T05:05:40;10.05;;;3.95;;
12597;SDS011;6364;53.590;9.956;2023-06-14T05:08:05;15.63;;;4.90;;
12597;SDS011;6364;53.590;9.956;2023-06-14T05:10:31;7.63;;;4.35;;
12597;SDS011;6364;53.590;9.956;2023-06-14T05:12:56;14.85;;;4.55;;
12597;SDS011;6364;53.590;9.956;2023-06-14T05:15:21;12.15;;;4.22;;
12597;SDS011;6364;53.590;9.956;2023-06-14T05:17:50;11.48;;;4.40;;
12597;SDS011;6364;53.590;9.956;2023-06-14T05:20:20;9.43;;;4.38;;
12597;SDS011;6364;53.590;9.956;2023-06-14T05:22:45;12.13;;;4.60;;
12597;SDS011;6364;53.590;9.956;2023-06-14T05:25:11;8.00;;;4.57;;
12597;SDS011;6364;53.590;9.956;2023-06-14T05:27:36;13.02;;;4.57;;
12597;SDS011;6364;53.590;9.956;2023-06-14T05:30:02;10.15;;;4.80;;
12597;SDS011;6364;53.590;9.956;2023-06-14T05:32:28;22.40;;;4.85;;
12597;SDS011;6364;53.590;9.956;2023-06-14T05:34:54;12.60;;;4.72;;
12597;SDS011;6364;53.590;9.956;2023-06-14T05:37:19;16.30;;;4.30;;
12597;SDS011;6364;53.590;9.956;2023-06-14T05:39:44;14.57;;;4.53;;
12597;SDS011;6364;53.590;9.956;2023-06-14T05:42:10;11.95;;;4.15;;
12597;SDS011;6364;53.590;9.956;2023-06-14T05:44:35;15.82;;;4.47;;
12597;SDS011;6364;53.590;9.956;2023-06-14T05:47:01;13.90;;;4.35;;
12597;SDS011;6364;53.590;9.956;2023-06-14T05:49:26;9.90;;;4.25;;
12597;SDS011;6364;53.590;9.956;2023-06-14T05:51:51;24.63;;;5.10;;
12597;SDS011;6364;53.590;9.956;2023-06-14T05:54:17;7.15;;;4.53;;
12597;SDS011;6364;53.590;9.956;2023-06-14T05:56:42;13.32;;;3.97;;
12597;SDS011;6364;53.590;9.956;2023-06-14T05:59:07;7.15;;;4.20;;
12597;SDS011;6364;53.590;9.956;2023-06-14T06:01:33;16.20;;;4.03;;
12597;SDS011;6364;53.590;9.956;2023-06-14T06:04:01;12.00;;;3.92;;
12597;SDS011;6364;53.590;9.956;2023-06-14T06:06:27;9.65;;;4.00;;
12597;SDS011;6364;53.590;9.956;2023-06-14T06:08:52;16.92;;;4.25;;
12597;SDS011;6364;53.590;9.956;2023-06-14T06:11:17;27.85;;;4.88;;
12597;SDS011;6364;53.590;9.956;2023-06-14T06:13:43;5.43;;;3.80;;
12597;SDS011;6364;53.590;9.956;2023-06-14T06:16:08;8.40;;;3.85;;
12597;SDS011;6364;53.590;9.956;2023-06-14T06:18:33;5.45;;;3.50;;
12597;SDS011;6364;53.590;9.956;2023-06-14T06:20:59;6.40;;;3.58;;
12597;SDS011;6364;53.590;9.956;2023-06-14T06:23:25;12.85;;;3.85;;
12597;SDS011;6364;53.590;9.956;2023-06-14T06:25:50;12.80;;;3.70;;
12597;SDS011;6364;53.590;9.956;2023-06-14T06:28:16;16.27;;;3.58;;
12597;SDS011;6364;53.590;9.956;2023-06-14T06:30:42;6.53;;;3.00;;
12597;SDS011;6364;53.590;9.956;2023-06-14T06:33:07;11.60;;;3.80;;
12597;SDS011;6364;53.590;9.956;2023-06-14T06:35:33;5.72;;;3.50;;
12597;SDS011;6364;53.590;9.956;2023-06-14T06:37:58;6.47;;;4.05;;
12597;SDS011;6364;53.590;9.956;2023-06-14T06:40:24;5.43;;;3.67;;
12597;SDS011;6364;53.590;9.956;2023-06-14T06:42:50;8.70;;;3.40;;
12597;SDS011;6364;53.590;9.956;2023-06-14T06:45:15;6.47;;;3.40;;
12597;SDS011;6364;53.590;9.956;2023-06-14T06:47:40;13.73;;;3.38;;
12597;SDS011;6364;53.590;9.956;2023-06-14T06:50:06;4.60;;;3.03;;
12597;SDS011;6364;53.590;9.956;2023-06-14T06:52:32;4.32;;;2.72;;
12597;SDS011;6364;53.590;9.956;2023-06-14T06:54:58;7.32;;;3.13;;
12597;SDS011;6364;53.590;9.956;2023-06-14T06:57:23;8.45;;;3.63;;
12597;SDS011;6364;53.590;9.956;2023-06-14T06:59:49;6.70;;;3.13;;
12597;SDS011;6364;53.590;9.956;2023-06-14T07:02:14;7.18;;;3.03;;
12597;SDS011;6364;53.590;9.956;2023-06-14T07:04:40;5.05;;;3.03;;
12597;SDS011;6364;53.590;9.956;2023-06-14T07:07:06;7.35;;;3.17;;
12597;SDS011;6364;53.590;9.956;2023-06-14T07:09:31;6.32;;;3.08;;
12597;SDS011;6364;53.590;9.956;2023-06-14T07:11:57;7.10;;;3.35;;
12597;SDS011;6364;53.590;9.956;2023-06-14T07:14:22;5.22;;;3.00;;
12597;SDS011;6364;53.590;9.956;2023-06-14T07:16:48;4.00;;;2.85;;
12597;SDS011;6364;53.590;9.956;2023-06-14T07:19:14;6.75;;;2.67;;
12597;SDS011;6364;53.590;9.956;2023-06-14T07:21:39;5.60;;;2.90;;
12597;SDS011;6364;53.590;9.956;2023-06-14T07:24:05;7.20;;;2.80;;
12597;SDS011;6364;53.590;9.956;2023-06-14T07:26:31;4.22;;;3.17;;
12597;SDS011;6364;53.590;9.956;2023-06-14T07:28:57;9.80;;;2.80;;
12597;SDS011;6364;53.590;9.956;2023-06-14T07:31:22;4.60;;;2.90;;
12597;SDS011;6364;53.590;9.956;2023-06-14T07:33:47;5.32;;;2.55;;
12597;SDS011;6364;53.590;9.956;2023-06-14T07:36:12;12.55;;;3.50;;
12597;SDS011;6364;53.590;9.956;2023-06-14T07:38:38;9.25;;;2.70;;
12597;SDS011;6364;53.590;9.956;2023-06-14T07:41:05;11.68;;;3.08;;
12597;SDS011;6364;53.590;9.956;2023-06-14T07:43:30;4.93;;;3.00;;
12597;SDS011;6364;53.590;9.956;2023-06-14T07:45:56;6.07;;;3.03;;
12597;SDS011;6364;53.590;9.956;2023-06-14T07:48:22;3.13;;;2.53;;
12597;SDS011;6364;53.590;9.956;2023-06-14T07:50:47;8.68;;;3.22;;
12597;SDS011;6364;53.590;9.956;2023-06-14T07:53:13;4.80;;;2.72;;
12597;SDS011;6364;53.590;9.956;2023-06-14T07:55:38;4.57;;;2.67;;
12597;SDS011;6364;53.590;9.956;2023-06-14T07:58:04;3.15;;;2.85;;
12597;SDS011;6364;53.590;9.956;2023-06-14T08:00:33;3.55;;;2.70;;
12597;SDS011;6364;53.590;9.956;2023-06-14T08:02:58;3.80;;;2.88;;
12597;SDS011;6364;53.590;9.956;2023-06-14T08:05:27;3.95;;;2.90;;
12597;SDS011;6364;53.590;9.956;2023-06-14T08:07:53;4.25;;;2.80;;
12597;SDS011;6364;53.590;9.956;2023-06-14T08:10:19;5.72;;;2.80;;
12597;SDS011;6364;53.590;9.956;2023-06-14T08:12:45;5.35;;;2.78;;
12597;SDS011;6364;53.590;9.956;2023-06-14T08:15:10;8.82;;;2.83;;
12597;SDS011;6364;53.590;9.956;2023-06-14T08:17:36;7.65;;;3.28;;
12597;SDS011;6364;53.590;9.956;2023-06-14T08:20:01;6.10;;;3.08;;
12597;SDS011;6364;53.590;9.956;2023-06-14T08:22:29;5.88;;;2.85;;
12597;SDS011;6364;53.590;9.956;2023-06-14T08:24:58;6.78;;;3.00;;
12597;SDS011;6364;53.590;9.956;2023-06-14T08:27:24;7.00;;;3.00;;
12597;SDS011;6364;53.590;9.956;2023-06-14T08:29:49;12.68;;;2.95;;
12597;SDS011;6364;53.590;9.956;2023-06-14T08:32:15;9.70;;;2.88;;
12597;SDS011;6364;53.590;9.956;2023-06-14T08:34:40;3.50;;;2.80;;
12597;SDS011;6364;53.590;9.956;2023-06-14T08:37:05;17.38;;;3.97;;
12597;SDS011;6364;53.590;9.956;2023-06-14T08:39:31;9.63;;;3.50;;
12597;SDS011;6364;53.590;9.956;2023-06-14T08:41:57;8.80;;;3.30;;
12597;SDS011;6364;53.590;9.956;2023-06-14T08:44:22;8.00;;;2.83;;
12597;SDS011;6364;53.590;9.956;2023-06-14T08:46:48;7.65;;;3.13;;
12597;SDS011;6364;53.590;9.956;2023-06-14T08:49:13;7.22;;;2.78;;
12597;SDS011;6364;53.590;9.956;2023-06-14T08:51:41;22.15;;;3.33;;
12597;SDS011;6364;53.590;9.956;2023-06-14T08:54:08;35.08;;;3.95;;
12597;SDS011;6364;53.590;9.956;2023-06-14T08:56:35;9.70;;;3.08;;
12597;SDS011;6364;53.590;9.956;2023-06-14T08:59:03;50.40;;;4.80;;
12597;SDS011;6364;53.590;9.956;2023-06-14T09:01:34;14.30;;;3.92;;
12597;SDS011;6364;53.590;9.956;2023-06-14T09:04:01;4.78;;;3.30;;
12597;SDS011;6364;53.590;9.956;2023-06-14T09:06:27;7.40;;;3.20;;
12597;SDS011;6364;53.590;9.956;2023-06-14T09:08:53;11.20;;;3.20;;
12597;SDS011;6364;53.590;9.956;2023-06-14T09:11:19;6.72;;;3.20;;
12597;SDS011;6364;53.590;9.956;2023-06-14T09:13:45;6.07;;;2.83;;
12597;SDS011;6364;53.590;9.956;2023-06-14T09:16:11;18.25;;;3.53;;
12597;SDS011;6364;53.590;9.956;2023-06-14T09:18:38;6.65;;;2.90;;
12597;SDS011;6364;53.590;9.956;2023-06-14T09:21:07;7.18;;;3.28;;
12597;SDS011;6364;53.590;9.956;2023-06-14T09:23:37;9.60;;;3.47;;
12597;SDS011;6364;53.590;9.956;2023-06-14T09:26:07;6.10;;;2.88;;
12597;SDS011;6364;53.590;9.956;2023-06-14T09:28:36;8.35;;;2.90;;
12597;SDS011;6364;53.590;9.956;2023-06-14T09:31:15;7.95;;;3.15;;
12597;SDS011;6364;53.590;9.956;2023-06-14T09:33:42;8.25;;;3.72;;
12597;SDS011;6364;53.590;9.956;2023-06-14T09:36:15;8.85;;;3.33;;
12597;SDS011;6364;53.590;9.956;2023-06-14T09:38:59;4.82;;;3.03;;
12597;SDS011;6364;53.590;9.956;2023-06-14T09:41:32;10.93;;;4.03;;
12597;SDS011;6364;53.590;9.956;2023-06-14T09:44:05;19.55;;;3.55;;
12597;SDS011;6364;53.590;9.956;2023-06-14T09:46:32;9.02;;;3.35;;
12597;SDS011;6364;53.590;9.956;2023-06-14T09:48:58;11.07;;;3.40;;
12597;SDS011;6364;53.590;9.956;2023-06-14T09:51:24;10.10;;;3.15;;
12597;SDS011;6364;53.590;9.956;2023-06-14T09:53:51;7.38;;;3.38;;
12597;SDS011;6364;53.590;9.956;2023-06-14T09:56:25;8.55;;;3.10;;
12597;SDS011;6364;53.590;9.956;2023-06-14T09:58:54;7.53;;;3.47;;
12597;SDS011;6364;53.590;9.956;2023-06-14T10:01:21;13.15;;;3.38;;
12597;SDS011;6364;53.590;9.956;2023-06-14T10:03:54;4.72;;;2.90;;
12597;SDS011;6364;53.590;9.956;2023-06-14T10:06:25;13.52;;;3.50;;
12597;SDS011;6364;53.590;9.956;2023-06-14T10:08:55;6.68;;;3.22;;
12597;SDS011;6364;53.590;9.956;2023-06-14T10:11:22;11.77;;;3.42;;
12597;SDS011;6364;53.590;9.956;2023-06-14T10:13:48;7.18;;;3.28;;
12597;SDS011;6364;53.590;9.956;2023-06-14T10:16:16;6.22;;;3.60;;
12597;SDS011;6364;53.590;9.956;2023-06-14T10:24:10;9.43;;;3.53;;
12597;SDS011;6364;53.590;9.956;2023-06-14T10:26:49;5.50;;;3.00;;
12597;SDS011;6364;53.590;9.956;2023-06-14T10:29:16;8.10;;;3.53;;
12597;SDS011;6364;53.590;9.956;2023-06-14T10:34:23;9.50;;;3.78;;
12597;SDS011;6364;53.590;9.956;2023-06-14T10:37:04;7.22;;;3.60;;
12597;SDS011;6364;53.590;9.956;2023-06-14T10:39:30;10.73;;;3.45;;
12597;SDS011;6364;53.590;9.956;2023-06-14T10:41:57;11.48;;;3.42;;
12597;SDS011;6364;53.590;9.956;2023-06-14T10:46:48;7.40;;;3.30;;
12597;SDS011;6364;53.590;9.956;2023-06-14T10:49:18;9.60;;;3.65;;
12597;SDS011;6364;53.590;9.956;2023-06-14T10:51:44;8.27;;;3.35;;
12597;SDS011;6364;53.590;9.956;2023-06-14T10:54:14;5.38;;;3.70;;
12597;SDS011;6364;53.590;9.956;2023-06-14T10:56:45;4.03;;;3.08;;
12597;SDS011;6364;53.590;9.956;2023-06-14T10:59:12;7.35;;;3.20;;
12597;SDS011;6364;53.590;9.956;2023-06-14T11:01:41;11.75;;;3.53;;
12597;SDS011;6364;53.590;9.956;2023-06-14T11:04:20;20.10;;;4.60;;
12597;SDS011;6364;53.590;9.956;2023-06-14T11:06:49;8.48;;;3.78;;
12597;SDS011;6364;53.590;9.956;2023-06-14T11:12:10;8.43;;;3.17;;
12597;SDS011;6364;53.590;9.956;2023-06-14T11:14:39;7.03;;;3.65;;
12597;SDS011;6364;53.590;9.956;2023-06-14T11:17:05;9.65;;;3.58;;
12597;SDS011;6364;53.590;9.956;2023-06-14T11:19:30;4.57;;;3.47;;
12597;SDS011;6364;53.590;9.956;2023-06-14T11:21:56;7.47;;;3.50;;
12597;SDS011;6364;53.590;9.956;2023-06-14T11:24:22;6.68;;;3.70;;
12597;SDS011;6364;53.590;9.956;2023-06-14T11:26:47;5.40;;;3.03;;
12597;SDS011;6364;53.590;9.956;2023-06-14T11:29:14;8.07;;;3.47;;
12597;SDS011;6364;53.590;9.956;2023-06-14T11:31:43;9.38;;;3.53;;
12597;SDS011;6364;53.590;9.956;2023-06-14T11:34:10;4.07;;;2.80;;
12597;SDS011;6364;53.590;9.956;2023-06-14T11:36:37;7.93;;;3.30;;
12597;SDS011;6364;53.590;9.956;2023-06-14T11:39:03;6.97;;;3.30;;
12597;SDS011;6364;53.590;9.956;2023-06-14T11:41:42;8.75;;;3.40;;
12597;SDS011;6364;53.590;9.956;2023-06-14T11:44:08;7.68;;;3.05;;
12597;SDS011;6364;53.590;9.956;2023-06-14T11:46:34;5.25;;;3.38;;
12597;SDS011;6364;53.590;9.956;2023-06-14T11:49:01;9.25;;;3.50;;
12597;SDS011;6364;53.590;9.956;2023-06-14T11:51:32;8.27;;;3.25;;
12597;SDS011;6364;53.590;9.956;2023-06-14T11:53:58;6.22;;;3.33;;
12597;SDS011;6364;53.590;9.956;2023-06-14T11:56:23;6.68;;;3.38;;
12597;SDS011;6364;53.590;9.956;2023-06-14T11:58:49;4.30;;;3.03;;
12597;SDS011;6364;53.590;9.956;2023-06-14T12:01:18;5.75;;;3.60;;
12597;SDS011;6364;53.590;9.956;2023-06-14T12:03:50;6.50;;;3.33;;
12597;SDS011;6364;53.590;9.956;2023-06-14T12:06:16;10.77;;;4.18;;
12597;SDS011;6364;53.590;9.956;2023-06-14T12:08:43;5.75;;;3.47;;
12597;SDS011;6364;53.590;9.956;2023-06-14T12:11:13;12.02;;;3.65;;
12597;SDS011;6364;53.590;9.956;2023-06-14T12:13:40;10.35;;;3.65;;
12597;SDS011;6364;53.590;9.956;2023-06-14T12:16:09;6.85;;;3.10;;
12597;SDS011;6364;53.590;9.956;2023-06-14T12:18:36;6.53;;;3.20;;
12597;SDS011;6364;53.590;9.956;2023-06-14T12:21:03;7.95;;;3.30;;
12597;SDS011;6364;53.590;9.956;2023-06-14T12:23:42;8.13;;;4.07;;
12597;SDS011;6364;53.590;9.956;2023-06-14T12:26:11;5.25;;;3.10;;
12597;SDS011;6364;53.590;9.956;2023-06-14T12:28:39;10.57;;;3.78;;
12597;SDS011;6364;53.590;9.956;2023-06-14T12:31:05;8.63;;;3.50;;
12597;SDS011;6364;53.590;9.956;2023-06-14T12:33:31;6.85;;;3.08;;
12597;SDS011;6364;53.590;9.956;2023-06-14T12:35:56;7.07;;;3.33;;
12597;SDS011;6364;53.590;9.956;2023-06-14T12:38:23;7.65;;;3.65;;
12597;SDS011;6364;53.590;9.956;2023-06-14T12:40:49;6.90;;;3.22;;
12597;SDS011;6364;53.590;9.956;2023-06-14T12:43:14;7.00;;;3.03;;
12597;SDS011;6364;53.590;9.956;2023-06-14T12:45:39;7.43;;;3.53;;
12597;SDS011;6364;53.590;9.956;2023-06-14T12:48:05;5.03;;;3.42;;
12597;SDS011;6364;53.590;9.956;2023-06-14T12:50:30;9.77;;;3.15;;
12597;SDS011;6364;53.590;9.956;2023-06-14T12:52:55;10.45;;;3.53;;
12597;SDS011;6364;53.590;9.956;2023-06-14T12:55:21;8.93;;;3.42;;
12597;SDS011;6364;53.590;9.956;2023-06-14T12:57:46;10.00;;;3.28;;
12597;SDS011;6364;53.590;9.956;2023-06-14T13:00:14;4.47;;;3.10;;
12597;SDS011;6364;53.590;9.956;2023-06-14T13:02:40;6.65;;;3.08;;
12597;SDS011;6364;53.590;9.956;2023-06-14T13:05:05;9.02;;;3.72;;
12597;SDS011;6364;53.590;9.956;2023-06-14T13:07:31;12.90;;;3.75;;
12597;SDS011;6364;53.590;9.956;2023-06-14T13:09:56;8.73;;;3.15;;
12597;SDS011;6364;53.590;9.956;2023-06-14T13:12:21;12.77;;;3.72;;
12597;SDS011;6364;53.590;9.956;2023-06-14T13:14:46;9.23;;;3.97;;
12597;SDS011;6364;53.590;9.956;2023-06-14T13:17:12;13.63;;;3.83;;
12597;SDS011;6364;53.590;9.956;2023-06-14T13:19:37;5.80;;;3.47;;
12597;SDS011;6364;53.590;9.956;2023-06-14T13:22:03;14.40;;;4.10;;
12597;SDS011;6364;53.590;9.956;2023-06-14T13:24:28;8.35;;;4.03;;
12597;SDS011;6364;53.590;9.956;2023-06-14T13:26:54;9.48;;;3.92;;
12597;SDS011;6364;53.590;9.956;2023-06-14T13:29:20;9.70;;;3.22;;
12597;SDS011;6364;53.590;9.956;2023-06-14T13:31:45;6.82;;;3.25;;
12597;SDS011;6364;53.590;9.956;2023-06-14T13:34:11;19.30;;;3.80;;
12597;SDS011;6364;53.590;9.956;2023-06-14T13:36:36;11.70;;;3.55;;
12597;SDS011;6364;53.590;9.956;2023-06-14T13:39:02;38.53;;;4.63;;
12597;SDS011;6364;53.590;9.956;2023-06-14T13:41:28;10.68;;;3.80;;
12597;SDS011;6364;53.590;9.956;2023-06-14T13:43:57;8.50;;;3.20;;
12597;SDS011;6364;53.590;9.956;2023-06-14T13:46:23;13.68;;;3.88;;
12597;SDS011;6364;53.590;9.956;2023-06-14T13:48:48;24.63;;;3.58;;
12597;SDS011;6364;53.590;9.956;2023-06-14T13:51:14;14.43;;;3.63;;
12597;SDS011;6364;53.590;9.956;2023-06-14T13:53:39;9.55;;;3.38;;
12597;SDS011;6364;53.590;9.956;2023-06-14T13:56:04;23.75;;;3.70;;
12597;SDS011;6364;53.590;9.956;2023-06-14T13:58:30;13.95;;;3.35;;
12597;SDS011;6364;53.590;9.956;2023-06-14T14:00:55;16.23;;;3.40;;
12597;SDS011;6364;53.590;9.956;2023-06-14T14:03:20;7.63;;;2.90;;
12597;SDS011;6364;53.590;9.956;2023-06-14T14:05:46;13.10;;;3.40;;
12597;SDS011;6364;53.590;9.956;2023-06-14T14:08:11;8.43;;;3.10;;
12597;SDS011;6364;53.590;9.956;2023-06-14T14:10:37;29.73;;;3.92;;
12597;SDS011;6364;53.590;9.956;2023-06-14T14:13:02;9.63;;;3.03;;
12597;SDS011;6364;53.590;9.956;2023-06-14T14:15:27;8.60;;;2.95;;
12597;SDS011;6364;53.590;9.956;2023-06-14T14:17:53;8.65;;;2.90;;
12597;SDS011;6364;53.590;9.956;2023-06-14T14:20:19;11.60;;;2.90;;
12597;SDS011;6364;53.590;9.956;2023-06-14T14:22:44;6.80;;;3.22;;
12597;SDS011;6364;53.590;9.956;2023-06-14T14:25:10;9.15;;;2.83;;
12597;SDS011;6364;53.590;9.956;2023-06-14T14:27:35;19.55;;;3.53;;
12597;SDS011;6364;53.590;9.956;2023-06-14T14:30:01;20.90;;;3.50;;
12597;SDS011;6364;53.590;9.956;2023-06-14T14:32:27;7.82;;;3.70;;
12597;SDS011;6364;53.590;9.956;2023-06-14T14:34:53;21.75;;;3.58;;
12597;SDS011;6364;53.590;9.956;2023-06-14T14:37:18;17.85;;;3.80;;
12597;SDS011;6364;53.590;9.956;2023-06-14T14:39:44;22.77;;;4.50;;
12597;SDS011;6364;53.590;9.956;2023-06-14T14:42:09;5.93;;;3.05;;
12597;SDS011;6364;53.590;9.956;2023-06-14T14:44:36;26.20;;;3.65;;
12597;SDS011;6364;53.590;9.956;2023-06-14T14:47:01;32.17;;;3.95;;
12597;SDS011;6364;53.590;9.956;2023-06-14T14:49:27;7.93;;;3.40;;
12597;SDS011;6364;53.590;9.956;2023-06-14T14:51:53;9.48;;;3.13;;
12597;SDS011;6364;53.590;9.956;2023-06-14T14:54:18;11.10;;;3.13;;
12597;SDS011;6364;53.590;9.956;2023-06-14T14:56:43;5.57;;;3.20;;
12597;SDS011;6364;53.590;9.956;2023-06-14T14:59:09;6.35;;;3.33;;
12597;SDS011;6364;53.590;9.956;2023-06-14T15:01:34;7.50;;;2.78;;
12597;SDS011;6364;53.590;9.956;2023-06-14T15:04:00;6.50;;;3.00;;
12597;SDS011;6364;53.590;9.956;2023-06-14T15:06:26;15.00;;;3.25;;
12597;SDS011;6364;53.590;9.956;2023-06-14T15:08:51;9.25;;;3.20;;
12597;SDS011;6364;53.590;9.956;2023-06-14T15:11:17;8.40;;;2.97;;